sensor_id;sensor_type;location;lat;lon;timestamp;temperature;humidity
2825;DHT22;1420;51.324;12.344;2024-03-29T00:00:10;6.60;99.90
2825;DHT22;1420;51.324;12.344;2024-03-29T00:02:38;6.60;99.90
2825;DHT22;1420;51.324;12.344;2024-03-29T00:05:05;6.60;99.90
2825;DHT22;1420;51.324;12.344;2024-03-29T00:07:32;6.70;99.90
2825;DHT22;1420;51.324;12.344;2024-03-29T00:10:00;6.60;99.90
2825;DHT22;1420;51.324;12.344;2024-03-29T00:12:27;6.60;99.90
2825;DHT22;1420;51.324;12.344;2024-03-29T00:14:54;6.60;99.90
2825;DHT22;1420;51.324;12.344;2024-03-29T00:17:21;6.50;99.90
2825;DHT22;1420;51.324;12.344;2024-03-29T00:19:49;6.50;99.90
2825;DHT22;1420;51.324;12.344;2024-03-29T00:22:17;6.50;99.90
2825;DHT22;1420;51.324;12.344;2024-03-29T00:24:45;6.50;99.90
2825;DHT22;1420;51.324;12.344;2024-03-29T00:27:12;6.50;99.90
2825;DHT22;1420;51.324;12.344;2024-03-29T00:29:39;6.50;99.90
2825;DHT22;1420;51.324;12.344;2024-03-29T00:32:08;6.40;99.90
2825;DHT22;1420;51.324;12.344;2024-03-29T00:34:35;6.30;99.90
2825;DHT22;1420;51.324;12.344;2024-03-29T00:37:02;6.40;99.90
2825;DHT22;1420;51.324;12.344;2024-03-29T00:39:29;6.30;99.90
2825;DHT22;1420;51.324;12.344;2024-03-29T00:41:56;6.30;99.90
2825;DHT22;1420;51.324;12.344;2024-03-29T00:44:24;6.30;99.90
2825;DHT22;1420;51.324;12.344;2024-03-29T00:46:51;6.20;99.90
2825;DHT22;1420;51.324;12.344;2024-03-29T00:49:18;6.20;99.90
2825;DHT22;1420;51.324;12.344;2024-03-29T00:51:45;6.20;99.90
2825;DHT22;1420;51.324;12.344;2024-03-29T00:54:12;6.20;99.90
2825;DHT22;1420;51.324;12.344;2024-03-29T00:56:40;6.20;99.90
2825;DHT22;1420;51.324;12.344;2024-03-29T00:59:08;6.10;99.90
2825;DHT22;1420;51.324;12.344;2024-03-29T01:01:36;6.10;99.90
2825;DHT22;1420;51.324;12.344;2024-03-29T01:04:03;6.00;99.90
2825;DHT22;1420;51.324;12.344;2024-03-29T01:06:30;6.10;99.90
2825;DHT22;1420;51.324;12.344;2024-03-29T01:08:57;6.10;99.90
2825;DHT22;1420;51.324;12.344;2024-03-29T01:11:24;6.10;99.90
2825;DHT22;1420;51.324;12.344;2024-03-29T01:13:52;6.10;99.90
2825;DHT22;1420;51.324;12.344;2024-03-29T01:16:19;6.20;99.90
2825;DHT22;1420;51.324;12.344;2024-03-29T01:18:46;6.20;99.90
2825;DHT22;1420;51.324;12.344;2024-03-29T01:21:13;6.30;99.90
2825;DHT22;1420;51.324;12.344;2024-03-29T01:23:40;6.20;99.90
2825;DHT22;1420;51.324;12.344;2024-03-29T01:26:08;6.30;99.90
2825;DHT22;1420;51.324;12.344;2024-03-29T01:28:36;6.30;99.90
2825;DHT22;1420;51.324;12.344;2024-03-29T01:31:03;6.30;99.90
2825;DHT22;1420;51.324;12.344;2024-03-29T01:33:30;6.40;99.90
2825;DHT22;1420;51.324;12.344;2024-03-29T01:35:58;6.40;99.90
2825;DHT22;1420;51.324;12.344;2024-03-29T01:38:25;6.40;99.90
2825;DHT22;1420;51.324;12.344;2024-03-29T01:40:52;6.40;99.90
2825;DHT22;1420;51.324;12.344;2024-03-29T01:43:20;6.40;99.90
2825;DHT22;1420;51.324;12.344;2024-03-29T01:45:48;6.40;99.90
2825;DHT22;1420;51.324;12.344;2024-03-29T01:48:16;6.40;99.90
2825;DHT22;1420;51.324;12.344;2024-03-29T01:50:43;6.40;99.90
2825;DHT22;1420;51.324;12.344;2024-03-29T01:53:11;6.40;99.90
2825;DHT22;1420;51.324;12.344;2024-03-29T01:55:38;6.40;99.90
2825;DHT22;1420;51.324;12.344;2024-03-29T01:58:05;6.40;99.90
2825;DHT22;1420;51.324;12.344;2024-03-29T02:00:32;6.30;99.90
2825;DHT22;1420;51.324;12.344;2024-03-29T02:02:59;6.40;99.90
2825;DHT22;1420;51.324;12.344;2024-03-29T02:05:27;6.30;99.90
2825;DHT22;1420;51.324;12.344;2024-03-29T02:07:54;6.30;99.90
2825;DHT22;1420;51.324;12.344;2024-03-29T02:10:21;6.30;99.90
2825;DHT22;1420;51.324;12.344;2024-03-29T02:12:48;6.30;99.90
2825;DHT22;1420;51.324;12.344;2024-03-29T02:15:15;6.30;99.90
2825;DHT22;1420;51.324;12.344;2024-03-29T02:17:43;6.40;99.90
2825;DHT22;1420;51.324;12.344;2024-03-29T02:20:11;6.30;99.90
2825;DHT22;1420;51.324;12.344;2024-03-29T02:22:41;6.40;99.90
2825;DHT22;1420;51.324;12.344;2024-03-29T02:25:07;6.30;99.90
2825;DHT22;1420;51.324;12.344;2024-03-29T02:27:34;6.30;99.90
2825;DHT22;1420;51.324;12.344;2024-03-29T02:30:02;6.40;99.90
2825;DHT22;1420;51.324;12.344;2024-03-29T02:32:29;6.40;99.90
2825;DHT22;1420;51.324;12.344;2024-03-29T02:34:56;6.30;99.90
2825;DHT22;1420;51.324;12.344;2024-03-29T02:37:23;6.40;99.90
2825;DHT22;1420;51.324;12.344;2024-03-29T02:39:50;6.40;99.90
2825;DHT22;1420;51.324;12.344;2024-03-29T02:42:17;6.40;99.90
2825;DHT22;1420;51.324;12.344;2024-03-29T02:44:46;6.30;99.90
2825;DHT22;1420;51.324;12.344;2024-03-29T02:47:12;6.40;99.90
2825;DHT22;1420;51.324;12.344;2024-03-29T02:49:40;6.40;99.90
2825;DHT22;1420;51.324;12.344;2024-03-29T02:52:07;6.50;99.90
2825;DHT22;1420;51.324;12.344;2024-03-29T02:54:35;6.50;99.90
2825;DHT22;1420;51.324;12.344;2024-03-29T02:57:02;6.50;99.90
2825;DHT22;1420;51.324;12.344;2024-03-29T02:59:29;6.60;99.90
2825;DHT22;1420;51.324;12.344;2024-03-29T03:01:57;6.50;99.90
2825;DHT22;1420;51.324;12.344;2024-03-29T03:04:24;6.50;99.90
2825;DHT22;1420;51.324;12.344;2024-03-29T03:06:51;6.50;99.90
2825;DHT22;1420;51.324;12.344;2024-03-29T03:09:18;6.50;99.90
2825;DHT22;1420;51.324;12.344;2024-03-29T03:11:52;6.50;99.90
2825;DHT22;1420;51.324;12.344;2024-03-29T03:14:20;6.40;99.90
2825;DHT22;1420;51.324;12.344;2024-03-29T03:16:47;6.40;99.90
2825;DHT22;1420;51.324;12.344;2024-03-29T03:19:14;6.40;99.90
2825;DHT22;1420;51.324;12.344;2024-03-29T03:21:41;6.40;99.90
2825;DHT22;1420;51.324;12.344;2024-03-29T03:24:08;6.40;99.90
2825;DHT22;1420;51.324;12.344;2024-03-29T03:26:36;6.40;99.90
2825;DHT22;1420;51.324;12.344;2024-03-29T03:29:03;6.30;99.90
2825;DHT22;1420;51.324;12.344;2024-03-29T03:31:30;6.30;99.90
2825;DHT22;1420;51.324;12.344;2024-03-29T03:33:57;6.20;99.90
2825;DHT22;1420;51.324;12.344;2024-03-29T03:36:24;6.30;99.90
2825;DHT22;1420;51.324;12.344;2024-03-29T03:38:52;6.20;99.90
2825;DHT22;1420;51.324;12.344;2024-03-29T03:41:19;6.20;99.90
2825;DHT22;1420;51.324;12.344;2024-03-29T03:43:46;6.30;99.90
2825;DHT22;1420;51.324;12.344;2024-03-29T03:46:13;6.20;99.90
2825;DHT22;1420;51.324;12.344;2024-03-29T03:48:41;6.30;99.90
2825;DHT22;1420;51.324;12.344;2024-03-29T03:51:09;6.20;99.90
2825;DHT22;1420;51.324;12.344;2024-03-29T03:53:36;6.10;99.90
2825;DHT22;1420;51.324;12.344;2024-03-29T03:56:04;6.20;99.90
2825;DHT22;1420;51.324;12.344;2024-03-29T03:58:31;6.20;99.90
2825;DHT22;1420;51.324;12.344;2024-03-29T04:01:03;6.20;99.90
2825;DHT22;1420;51.324;12.344;2024-03-29T04:03:27;6.20;99.90
2825;DHT22;1420;51.324;12.344;2024-03-29T04:05:54;6.10;99.90
2825;DHT22;1420;51.324;12.344;2024-03-29T04:08:21;6.20;99.90
2825;DHT22;1420;51.324;12.344;2024-03-29T04:10:48;6.20;99.90
2825;DHT22;1420;51.324;12.344;2024-03-29T04:13:16;6.20;99.90
2825;DHT22;1420;51.324;12.344;2024-03-29T04:15:43;6.20;99.90
2825;DHT22;1420;51.324;12.344;2024-03-29T04:18:10;6.30;99.90
2825;DHT22;1420;51.324;12.344;2024-03-29T04:20:37;6.30;99.90
2825;DHT22;1420;51.324;12.344;2024-03-29T04:23:05;6.30;99.90
2825;DHT22;1420;51.324;12.344;2024-03-29T04:25:32;6.40;99.90
2825;DHT22;1420;51.324;12.344;2024-03-29T04:27:59;6.40;99.90
2825;DHT22;1420;51.324;12.344;2024-03-29T04:30:26;6.40;99.90
2825;DHT22;1420;51.324;12.344;2024-03-29T04:32:54;6.50;99.90
2825;DHT22;1420;51.324;12.344;2024-03-29T04:35:21;6.40;99.90
2825;DHT22;1420;51.324;12.344;2024-03-29T04:37:49;6.50;99.90
2825;DHT22;1420;51.324;12.344;2024-03-29T04:40:17;6.60;99.90
2825;DHT22;1420;51.324;12.344;2024-03-29T04:42:44;6.70;99.90
2825;DHT22;1420;51.324;12.344;2024-03-29T04:45:11;6.70;99.90
2825;DHT22;1420;51.324;12.344;2024-03-29T04:47:38;6.70;99.90
2825;DHT22;1420;51.324;12.344;2024-03-29T04:50:06;6.70;99.90
2825;DHT22;1420;51.324;12.344;2024-03-29T04:52:34;6.80;99.90
2825;DHT22;1420;51.324;12.344;2024-03-29T04:55:02;6.90;99.90
2825;DHT22;1420;51.324;12.344;2024-03-29T04:57:30;6.90;99.90
2825;DHT22;1420;51.324;12.344;2024-03-29T04:59:58;6.90;99.90
2825;DHT22;1420;51.324;12.344;2024-03-29T05:02:26;7.00;99.90
2825;DHT22;1420;51.324;12.344;2024-03-29T05:04:54;7.00;99.90
2825;DHT22;1420;51.324;12.344;2024-03-29T05:07:21;6.90;99.90
2825;DHT22;1420;51.324;12.344;2024-03-29T05:09:48;7.00;99.90
2825;DHT22;1420;51.324;12.344;2024-03-29T05:12:16;7.00;99.90
2825;DHT22;1420;51.324;12.344;2024-03-29T05:14:43;7.10;99.90
2825;DHT22;1420;51.324;12.344;2024-03-29T05:17:10;7.10;99.90
2825;DHT22;1420;51.324;12.344;2024-03-29T05:19:37;7.10;99.90
2825;DHT22;1420;51.324;12.344;2024-03-29T05:22:05;7.10;99.90
2825;DHT22;1420;51.324;12.344;2024-03-29T05:24:33;7.20;99.90
2825;DHT22;1420;51.324;12.344;2024-03-29T05:27:01;7.20;99.90
2825;DHT22;1420;51.324;12.344;2024-03-29T05:29:29;7.40;99.90
2825;DHT22;1420;51.324;12.344;2024-03-29T05:31:57;7.50;99.90
2825;DHT22;1420;51.324;12.344;2024-03-29T05:34:24;7.50;99.90
2825;DHT22;1420;51.324;12.344;2024-03-29T05:36:51;7.50;99.90
2825;DHT22;1420;51.324;12.344;2024-03-29T05:39:19;7.60;99.90
2825;DHT22;1420;51.324;12.344;2024-03-29T05:41:46;7.70;99.90
2825;DHT22;1420;51.324;12.344;2024-03-29T05:44:13;7.70;99.90
2825;DHT22;1420;51.324;12.344;2024-03-29T05:46:40;7.90;99.90
2825;DHT22;1420;51.324;12.344;2024-03-29T05:49:07;7.90;99.90
2825;DHT22;1420;51.324;12.344;2024-03-29T05:51:35;7.90;99.90
2825;DHT22;1420;51.324;12.344;2024-03-29T05:54:02;7.90;99.90
2825;DHT22;1420;51.324;12.344;2024-03-29T05:56:30;7.90;99.90
2825;DHT22;1420;51.324;12.344;2024-03-29T05:58:57;8.00;99.90
2825;DHT22;1420;51.324;12.344;2024-03-29T06:01:24;8.00;99.90
2825;DHT22;1420;51.324;12.344;2024-03-29T06:03:52;8.10;99.90
2825;DHT22;1420;51.324;12.344;2024-03-29T06:06:19;8.10;99.90
2825;DHT22;1420;51.324;12.344;2024-03-29T06:08:46;8.10;99.90
2825;DHT22;1420;51.324;12.344;2024-03-29T06:11:14;8.10;99.90
2825;DHT22;1420;51.324;12.344;2024-03-29T06:13:41;8.20;99.90
2825;DHT22;1420;51.324;12.344;2024-03-29T06:16:15;8.30;99.90
2825;DHT22;1420;51.324;12.344;2024-03-29T06:18:47;8.30;99.90
2825;DHT22;1420;51.324;12.344;2024-03-29T06:21:14;8.30;99.90
2825;DHT22;1420;51.324;12.344;2024-03-29T06:23:42;8.40;99.90
2825;DHT22;1420;51.324;12.344;2024-03-29T06:26:09;8.40;99.90
2825;DHT22;1420;51.324;12.344;2024-03-29T06:28:36;8.50;99.90
2825;DHT22;1420;51.324;12.344;2024-03-29T06:31:03;8.50;99.90
2825;DHT22;1420;51.324;12.344;2024-03-29T06:33:31;8.70;99.90
2825;DHT22;1420;51.324;12.344;2024-03-29T06:35:58;8.70;99.90
2825;DHT22;1420;51.324;12.344;2024-03-29T06:38:25;8.80;99.90
2825;DHT22;1420;51.324;12.344;2024-03-29T06:40:52;8.90;99.90
2825;DHT22;1420;51.324;12.344;2024-03-29T06:43:19;8.90;99.90
2825;DHT22;1420;51.324;12.344;2024-03-29T06:45:47;9.00;99.90
2825;DHT22;1420;51.324;12.344;2024-03-29T06:48:14;9.00;99.90
2825;DHT22;1420;51.324;12.344;2024-03-29T06:50:41;9.10;99.90
2825;DHT22;1420;51.324;12.344;2024-03-29T06:53:08;9.20;99.90
2825;DHT22;1420;51.324;12.344;2024-03-29T06:55:36;9.20;99.90
2825;DHT22;1420;51.324;12.344;2024-03-29T06:58:04;9.30;99.90
2825;DHT22;1420;51.324;12.344;2024-03-29T07:00:32;9.40;99.90
2825;DHT22;1420;51.324;12.344;2024-03-29T07:03:00;9.40;99.90
2825;DHT22;1420;51.324;12.344;2024-03-29T07:05:27;9.60;99.90
2825;DHT22;1420;51.324;12.344;2024-03-29T07:07:54;9.60;99.90
2825;DHT22;1420;51.324;12.344;2024-03-29T07:10:21;9.60;99.90
2825;DHT22;1420;51.324;12.344;2024-03-29T07:12:48;9.80;99.90
2825;DHT22;1420;51.324;12.344;2024-03-29T07:15:16;9.80;99.90
2825;DHT22;1420;51.324;12.344;2024-03-29T07:17:43;9.80;99.90
2825;DHT22;1420;51.324;12.344;2024-03-29T07:20:10;9.80;99.90
2825;DHT22;1420;51.324;12.344;2024-03-29T07:22:37;9.80;99.90
2825;DHT22;1420;51.324;12.344;2024-03-29T07:25:05;9.80;99.90
2825;DHT22;1420;51.324;12.344;2024-03-29T07:27:32;9.90;99.90
2825;DHT22;1420;51.324;12.344;2024-03-29T07:30:00;10.60;99.90
2825;DHT22;1420;51.324;12.344;2024-03-29T07:32:27;11.30;99.90
2825;DHT22;1420;51.324;12.344;2024-03-29T07:34:54;11.20;99.90
2825;DHT22;1420;51.324;12.344;2024-03-29T07:37:22;11.30;99.90
2825;DHT22;1420;51.324;12.344;2024-03-29T07:39:49;11.30;99.90
2825;DHT22;1420;51.324;12.344;2024-03-29T07:42:16;11.20;99.90
2825;DHT22;1420;51.324;12.344;2024-03-29T07:44:44;11.10;99.90
2825;DHT22;1420;51.324;12.344;2024-03-29T07:47:11;10.70;99.90
2825;DHT22;1420;51.324;12.344;2024-03-29T07:49:40;10.40;99.90
2825;DHT22;1420;51.324;12.344;2024-03-29T07:52:07;10.20;99.90
2825;DHT22;1420;51.324;12.344;2024-03-29T07:54:35;10.00;99.90
2825;DHT22;1420;51.324;12.344;2024-03-29T07:57:02;10.00;99.90
2825;DHT22;1420;51.324;12.344;2024-03-29T07:59:29;10.10;99.90
2825;DHT22;1420;51.324;12.344;2024-03-29T08:01:56;10.00;99.90
2825;DHT22;1420;51.324;12.344;2024-03-29T08:04:24;10.00;99.90
2825;DHT22;1420;51.324;12.344;2024-03-29T08:06:52;10.00;99.90
2825;DHT22;1420;51.324;12.344;2024-03-29T08:09:20;10.00;99.90
2825;DHT22;1420;51.324;12.344;2024-03-29T08:11:48;9.80;99.90
2825;DHT22;1420;51.324;12.344;2024-03-29T08:14:16;9.70;99.90
2825;DHT22;1420;51.324;12.344;2024-03-29T08:16:44;9.70;99.90
2825;DHT22;1420;51.324;12.344;2024-03-29T08:19:11;9.60;99.90
2825;DHT22;1420;51.324;12.344;2024-03-29T08:21:39;9.50;99.90
2825;DHT22;1420;51.324;12.344;2024-03-29T08:24:06;9.60;99.90
2825;DHT22;1420;51.324;12.344;2024-03-29T08:26:33;9.60;99.90
2825;DHT22;1420;51.324;12.344;2024-03-29T08:29:00;9.50;99.90
2825;DHT22;1420;51.324;12.344;2024-03-29T08:31:27;9.60;99.90
2825;DHT22;1420;51.324;12.344;2024-03-29T08:33:55;9.60;99.90
2825;DHT22;1420;51.324;12.344;2024-03-29T08:36:22;9.70;99.90
2825;DHT22;1420;51.324;12.344;2024-03-29T08:38:49;9.70;99.90
2825;DHT22;1420;51.324;12.344;2024-03-29T08:41:16;9.80;99.90
2825;DHT22;1420;51.324;12.344;2024-03-29T08:43:43;9.80;99.90
2825;DHT22;1420;51.324;12.344;2024-03-29T08:46:11;9.80;99.90
2825;DHT22;1420;51.324;12.344;2024-03-29T08:48:38;9.90;99.90
2825;DHT22;1420;51.324;12.344;2024-03-29T08:51:05;9.80;99.90
2825;DHT22;1420;51.324;12.344;2024-03-29T08:53:32;9.80;99.90
2825;DHT22;1420;51.324;12.344;2024-03-29T08:55:59;9.90;99.90
2825;DHT22;1420;51.324;12.344;2024-03-29T08:58:29;9.90;99.90
2825;DHT22;1420;51.324;12.344;2024-03-29T09:00:57;9.90;99.90
2825;DHT22;1420;51.324;12.344;2024-03-29T09:03:24;9.90;99.90
2825;DHT22;1420;51.324;12.344;2024-03-29T09:05:51;10.00;99.90
2825;DHT22;1420;51.324;12.344;2024-03-29T09:08:18;10.00;99.90
2825;DHT22;1420;51.324;12.344;2024-03-29T09:10:46;10.00;99.90
2825;DHT22;1420;51.324;12.344;2024-03-29T09:13:13;10.10;99.90
2825;DHT22;1420;51.324;12.344;2024-03-29T09:15:41;10.10;99.90
2825;DHT22;1420;51.324;12.344;2024-03-29T09:18:09;10.20;99.90
2825;DHT22;1420;51.324;12.344;2024-03-29T09:20:37;10.20;99.90
2825;DHT22;1420;51.324;12.344;2024-03-29T09:23:05;10.20;99.90
2825;DHT22;1420;51.324;12.344;2024-03-29T09:25:32;10.30;99.90
2825;DHT22;1420;51.324;12.344;2024-03-29T09:27:59;10.40;99.90
2825;DHT22;1420;51.324;12.344;2024-03-29T09:30:26;10.40;99.90
2825;DHT22;1420;51.324;12.344;2024-03-29T09:32:53;10.50;99.90
2825;DHT22;1420;51.324;12.344;2024-03-29T09:35:21;10.50;99.90
2825;DHT22;1420;51.324;12.344;2024-03-29T09:37:48;10.60;99.90
2825;DHT22;1420;51.324;12.344;2024-03-29T09:40:15;10.50;99.90
2825;DHT22;1420;51.324;12.344;2024-03-29T09:42:43;10.50;99.90
2825;DHT22;1420;51.324;12.344;2024-03-29T09:45:09;10.60;99.90
2825;DHT22;1420;51.324;12.344;2024-03-29T09:47:37;10.70;99.90
2825;DHT22;1420;51.324;12.344;2024-03-29T09:50:04;10.70;99.90
2825;DHT22;1420;51.324;12.344;2024-03-29T09:52:32;10.90;99.90
2825;DHT22;1420;51.324;12.344;2024-03-29T09:55:00;10.90;99.90
2825;DHT22;1420;51.324;12.344;2024-03-29T09:57:26;10.90;99.90
2825;DHT22;1420;51.324;12.344;2024-03-29T09:59:57;10.90;99.90
2825;DHT22;1420;51.324;12.344;2024-03-29T10:02:27;11.10;99.90
2825;DHT22;1420;51.324;12.344;2024-03-29T10:04:53;11.00;99.90
2825;DHT22;1420;51.324;12.344;2024-03-29T10:07:20;11.10;99.90
2825;DHT22;1420;51.324;12.344;2024-03-29T10:09:48;11.10;99.90
2825;DHT22;1420;51.324;12.344;2024-03-29T10:12:15;11.20;99.90
2825;DHT22;1420;51.324;12.344;2024-03-29T10:14:44;11.30;99.90
2825;DHT22;1420;51.324;12.344;2024-03-29T10:17:11;11.40;99.90
2825;DHT22;1420;51.324;12.344;2024-03-29T10:19:39;11.60;99.30
2825;DHT22;1420;51.324;12.344;2024-03-29T10:22:07;11.70;98.80
2825;DHT22;1420;51.324;12.344;2024-03-29T10:24:34;11.60;99.10
2825;DHT22;1420;51.324;12.344;2024-03-29T10:27:01;11.80;98.10
2825;DHT22;1420;51.324;12.344;2024-03-29T10:29:29;11.80;98.00
2825;DHT22;1420;51.324;12.344;2024-03-29T10:31:56;11.90;98.90
2825;DHT22;1420;51.324;12.344;2024-03-29T10:34:25;12.00;98.00
2825;DHT22;1420;51.324;12.344;2024-03-29T10:36:52;12.10;96.70
2825;DHT22;1420;51.324;12.344;2024-03-29T10:39:20;12.30;96.40
2825;DHT22;1420;51.324;12.344;2024-03-29T10:41:47;12.10;96.20
2825;DHT22;1420;51.324;12.344;2024-03-29T10:44:14;12.20;98.60
2825;DHT22;1420;51.324;12.344;2024-03-29T10:46:41;12.20;96.30
2825;DHT22;1420;51.324;12.344;2024-03-29T10:49:09;12.30;98.10
2825;DHT22;1420;51.324;12.344;2024-03-29T10:51:39;12.20;97.00
2825;DHT22;1420;51.324;12.344;2024-03-29T10:54:08;12.30;98.40
2825;DHT22;1420;51.324;12.344;2024-03-29T10:56:35;12.30;98.80
2825;DHT22;1420;51.324;12.344;2024-03-29T10:59:21;12.60;95.30
2825;DHT22;1420;51.324;12.344;2024-03-29T11:01:45;12.50;95.20
2825;DHT22;1420;51.324;12.344;2024-03-29T11:04:16;12.70;95.70
2825;DHT22;1420;51.324;12.344;2024-03-29T11:06:40;12.70;96.70
2825;DHT22;1420;51.324;12.344;2024-03-29T11:09:08;12.90;95.20
2825;DHT22;1420;51.324;12.344;2024-03-29T11:11:35;12.90;94.00
2825;DHT22;1420;51.324;12.344;2024-03-29T11:14:04;13.00;94.90
2825;DHT22;1420;51.324;12.344;2024-03-29T11:16:30;12.90;94.90
2825;DHT22;1420;51.324;12.344;2024-03-29T11:18:57;13.10;94.10
2825;DHT22;1420;51.324;12.344;2024-03-29T11:21:26;13.30;95.20
2825;DHT22;1420;51.324;12.344;2024-03-29T11:23:54;13.30;92.40
2825;DHT22;1420;51.324;12.344;2024-03-29T11:26:22;13.40;93.80
2825;DHT22;1420;51.324;12.344;2024-03-29T11:28:49;13.40;93.70
2825;DHT22;1420;51.324;12.344;2024-03-29T11:31:16;13.50;92.50
2825;DHT22;1420;51.324;12.344;2024-03-29T11:33:44;13.60;93.10
2825;DHT22;1420;51.324;12.344;2024-03-29T11:36:12;13.70;92.30
2825;DHT22;1420;51.324;12.344;2024-03-29T11:38:39;13.90;93.00
2825;DHT22;1420;51.324;12.344;2024-03-29T11:41:07;13.90;91.80
2825;DHT22;1420;51.324;12.344;2024-03-29T11:43:34;14.00;90.60
2825;DHT22;1420;51.324;12.344;2024-03-29T11:46:01;14.10;93.20
2825;DHT22;1420;51.324;12.344;2024-03-29T11:48:29;14.10;91.20
2825;DHT22;1420;51.324;12.344;2024-03-29T11:50:55;14.20;91.10
2825;DHT22;1420;51.324;12.344;2024-03-29T11:53:22;14.20;90.40
2825;DHT22;1420;51.324;12.344;2024-03-29T11:55:49;14.40;90.70
2825;DHT22;1420;51.324;12.344;2024-03-29T11:58:17;14.30;87.00
2825;DHT22;1420;51.324;12.344;2024-03-29T12:00:49;14.40;89.30
2825;DHT22;1420;51.324;12.344;2024-03-29T12:03:22;14.30;90.60
2825;DHT22;1420;51.324;12.344;2024-03-29T12:05:50;14.50;90.30
2825;DHT22;1420;51.324;12.344;2024-03-29T12:08:16;14.40;91.10
2825;DHT22;1420;51.324;12.344;2024-03-29T12:10:44;14.50;89.40
2825;DHT22;1420;51.324;12.344;2024-03-29T12:13:15;14.50;91.20
2825;DHT22;1420;51.324;12.344;2024-03-29T12:15:40;14.40;91.70
2825;DHT22;1420;51.324;12.344;2024-03-29T12:18:08;14.50;92.40
2825;DHT22;1420;51.324;12.344;2024-03-29T12:20:36;14.40;92.40
2825;DHT22;1420;51.324;12.344;2024-03-29T12:23:04;14.30;93.70
2825;DHT22;1420;51.324;12.344;2024-03-29T12:25:31;14.50;96.40
2825;DHT22;1420;51.324;12.344;2024-03-29T12:27:58;14.70;95.60
2825;DHT22;1420;51.324;12.344;2024-03-29T12:30:26;14.60;96.20
2825;DHT22;1420;51.324;12.344;2024-03-29T12:33:00;14.60;96.70
2825;DHT22;1420;51.324;12.344;2024-03-29T12:35:27;14.70;97.60
2825;DHT22;1420;51.324;12.344;2024-03-29T12:37:54;14.60;98.60
2825;DHT22;1420;51.324;12.344;2024-03-29T12:40:21;14.70;99.90
2825;DHT22;1420;51.324;12.344;2024-03-29T12:42:49;14.70;99.90
2825;DHT22;1420;51.324;12.344;2024-03-29T12:45:16;14.80;99.90
2825;DHT22;1420;51.324;12.344;2024-03-29T12:47:43;14.90;99.90
2825;DHT22;1420;51.324;12.344;2024-03-29T12:50:12;15.20;99.90
2825;DHT22;1420;51.324;12.344;2024-03-29T12:52:41;15.00;99.90
2825;DHT22;1420;51.324;12.344;2024-03-29T12:55:07;14.60;99.90
2825;DHT22;1420;51.324;12.344;2024-03-29T12:57:35;14.40;99.90
2825;DHT22;1420;51.324;12.344;2024-03-29T13:00:02;14.60;99.90
2825;DHT22;1420;51.324;12.344;2024-03-29T13:02:29;14.90;99.90
2825;DHT22;1420;51.324;12.344;2024-03-29T13:04:57;15.00;99.90
2825;DHT22;1420;51.324;12.344;2024-03-29T13:07:24;15.00;99.90
2825;DHT22;1420;51.324;12.344;2024-03-29T13:09:51;15.10;99.90
2825;DHT22;1420;51.324;12.344;2024-03-29T13:12:18;15.00;99.90
2825;DHT22;1420;51.324;12.344;2024-03-29T13:14:45;14.70;99.90
2825;DHT22;1420;51.324;12.344;2024-03-29T13:17:13;14.80;99.90
2825;DHT22;1420;51.324;12.344;2024-03-29T13:19:40;14.80;99.90
2825;DHT22;1420;51.324;12.344;2024-03-29T13:22:07;14.80;99.90
2825;DHT22;1420;51.324;12.344;2024-03-29T13:24:34;14.90;99.90
2825;DHT22;1420;51.324;12.344;2024-03-29T13:27:01;14.80;99.90
2825;DHT22;1420;51.324;12.344;2024-03-29T13:29:29;14.90;99.90
2825;DHT22;1420;51.324;12.344;2024-03-29T13:31:56;14.80;99.90
2825;DHT22;1420;51.324;12.344;2024-03-29T13:34:23;14.90;99.90
2825;DHT22;1420;51.324;12.344;2024-03-29T13:36:51;14.40;99.90
2825;DHT22;1420;51.324;12.344;2024-03-29T13:39:18;14.30;99.90
2825;DHT22;1420;51.324;12.344;2024-03-29T13:41:45;14.40;99.90
2825;DHT22;1420;51.324;12.344;2024-03-29T13:44:13;14.40;99.90
2825;DHT22;1420;51.324;12.344;2024-03-29T13:46:40;14.60;99.90
2825;DHT22;1420;51.324;12.344;2024-03-29T13:49:07;14.60;99.90
2825;DHT22;1420;51.324;12.344;2024-03-29T13:51:34;14.80;99.90
2825;DHT22;1420;51.324;12.344;2024-03-29T13:54:02;14.90;99.90
2825;DHT22;1420;51.324;12.344;2024-03-29T13:56:29;14.90;99.90
2825;DHT22;1420;51.324;12.344;2024-03-29T13:58:57;15.00;99.90
2825;DHT22;1420;51.324;12.344;2024-03-29T14:01:24;14.80;99.90
2825;DHT22;1420;51.324;12.344;2024-03-29T14:03:51;15.00;99.90
2825;DHT22;1420;51.324;12.344;2024-03-29T14:06:20;14.90;99.90
2825;DHT22;1420;51.324;12.344;2024-03-29T14:08:47;15.00;99.90
2825;DHT22;1420;51.324;12.344;2024-03-29T14:11:15;15.10;99.90
2825;DHT22;1420;51.324;12.344;2024-03-29T14:13:43;15.30;99.90
2825;DHT22;1420;51.324;12.344;2024-03-29T14:16:11;15.20;99.90
2825;DHT22;1420;51.324;12.344;2024-03-29T14:18:38;15.10;99.90
2825;DHT22;1420;51.324;12.344;2024-03-29T14:21:05;14.90;99.90
2825;DHT22;1420;51.324;12.344;2024-03-29T14:23:33;15.00;99.90
2825;DHT22;1420;51.324;12.344;2024-03-29T14:26:01;15.10;99.90
2825;DHT22;1420;51.324;12.344;2024-03-29T14:28:28;15.00;99.90
2825;DHT22;1420;51.324;12.344;2024-03-29T14:30:56;15.00;99.90
2825;DHT22;1420;51.324;12.344;2024-03-29T14:33:23;14.80;99.90
2825;DHT22;1420;51.324;12.344;2024-03-29T14:35:50;14.90;99.90
2825;DHT22;1420;51.324;12.344;2024-03-29T14:38:17;14.90;99.90
2825;DHT22;1420;51.324;12.344;2024-03-29T14:40:44;14.80;99.90
2825;DHT22;1420;51.324;12.344;2024-03-29T14:43:12;15.00;99.90
2825;DHT22;1420;51.324;12.344;2024-03-29T14:45:39;14.90;99.90
2825;DHT22;1420;51.324;12.344;2024-03-29T14:48:07;14.80;99.90
2825;DHT22;1420;51.324;12.344;2024-03-29T14:50:34;14.70;99.90
2825;DHT22;1420;51.324;12.344;2024-03-29T14:53:01;14.70;99.90
2825;DHT22;1420;51.324;12.344;2024-03-29T14:55:28;14.70;99.90
2825;DHT22;1420;51.324;12.344;2024-03-29T14:57:56;14.60;99.90
2825;DHT22;1420;51.324;12.344;2024-03-29T15:00:24;14.50;99.90
2825;DHT22;1420;51.324;12.344;2024-03-29T15:02:51;14.50;99.90
2825;DHT22;1420;51.324;12.344;2024-03-29T15:05:19;14.40;99.90
2825;DHT22;1420;51.324;12.344;2024-03-29T15:07:46;14.30;99.90
2825;DHT22;1420;51.324;12.344;2024-03-29T15:10:13;14.30;99.90
2825;DHT22;1420;51.324;12.344;2024-03-29T15:12:40;14.40;99.90
2825;DHT22;1420;51.324;12.344;2024-03-29T15:15:08;14.40;99.90
2825;DHT22;1420;51.324;12.344;2024-03-29T15:17:35;14.60;99.90
2825;DHT22;1420;51.324;12.344;2024-03-29T15:20:02;14.60;99.90
2825;DHT22;1420;51.324;12.344;2024-03-29T15:22:29;14.60;99.90
2825;DHT22;1420;51.324;12.344;2024-03-29T15:24:57;14.50;99.90
2825;DHT22;1420;51.324;12.344;2024-03-29T15:27:24;14.40;99.90
2825;DHT22;1420;51.324;12.344;2024-03-29T15:30:05;14.40;99.90
2825;DHT22;1420;51.324;12.344;2024-03-29T15:32:32;14.40;99.90
2825;DHT22;1420;51.324;12.344;2024-03-29T15:34:59;14.40;99.90
2825;DHT22;1420;51.324;12.344;2024-03-29T15:37:27;14.40;99.90
2825;DHT22;1420;51.324;12.344;2024-03-29T15:39:54;14.40;99.90
2825;DHT22;1420;51.324;12.344;2024-03-29T15:42:21;14.30;99.90
2825;DHT22;1420;51.324;12.344;2024-03-29T15:44:48;14.30;99.90
2825;DHT22;1420;51.324;12.344;2024-03-29T15:47:15;14.30;99.90
2825;DHT22;1420;51.324;12.344;2024-03-29T15:49:43;14.30;99.90
2825;DHT22;1420;51.324;12.344;2024-03-29T15:52:10;14.20;99.90
2825;DHT22;1420;51.324;12.344;2024-03-29T15:54:37;14.20;99.90